Startpagina
METAR-TAF:

METAR-TAF

Vliegvelden :

Productieplatform

K14-fa-1c, Nederland

breedte: 53-16-10N, lengte: 3-37-40E, hoogte: 28 m

Actueel weer

Dit bericht is 34 minuten geleden gemaakt, om 06:55 UTC
Wind 20 kt uit het zuidzuidwesten
Temperatuur 15°C
Vochtigheid 72%
Druk 1005 hPa
Zicht 10 km of meer
Weinig wolken op 1800 ft

METAR: EHKV 160655Z AUTO 20020KT 9999 FEW018 15/10 Q1005 W///H///

Tijdstip: 09:29 (07:29 UTC)


TAF: ontbreekt

Waarnemingen en weersverwachtingen van meer dan 4000 vliegvelden (METAR en TAF).

De beschikbare stations zijn de gele en rode punten op de kaart.

Ga met uw muis naar het station om de naam te zien.

Klik dan om waarnemingen en weersverwachtingen te zien.

kaart wijzigen: klik op de groene knoppen met een zwart kruis om in te zoomen, op de groene knop met een streepje om uit te zoomen of op de groene pijlen voor aangrenzende kaarten.


METAR-TAF: